Terminal Aerodrome Forecast
Issued by NWS

Home | Current Version | Previous Version | Text Only | Print | Product List | Glossary On
Versions: 1 2 3 4 5 6 7 8 9 10 11 12 13 14 15 16 17 18 19 20 21 22 23 24
000
FTUS46 KPDT 111521 AAB
TAFPSC
TAF AMD
KPSC 111521Z 1115/1212 VRB03KT 2SM BR BKN004 OVC007
      TEMPO 1115/1118 1/2SM FZFG OVC003
     FM111800 22006KT 4SM -FZRASN SCT008 OVC014
     FM112100 22009KT P6SM VCSH SCT018 OVC080
     FM120200 23005KT P6SM OVC070=

USA.gov is the U.S. government's official web portal to all federal, state and local government web resources and services.